Time;durP1;ratioP1;P1;durP2;ratioP2;P2;SDS_P1;SDS_P2;PMS_P1;PMS_P2;Temp;Humidity;BMP_temperature;BMP_pressure;BME280_temperature;BME280_humidity;BME280_pressure;Samples;Min_cycle;Max_cycle;Signal;HPM_P1;HPM_P2
2022/12/03 00:01:23;;;;;;;15.80;13.65;;;;;;;;;;10076888;28;20049;-70
2022/12/03 00:06:18;;;;;;;13.15;11.75;;;;;;;;;;10078426;28;20054;-69
2022/12/03 00:11:11;;;;;;;13.25;11.95;;;;;;;;;;10082906;28;20053;-71
2022/12/03 00:16:05;;;;;;;14.48;12.38;;;;;;;;;;10083582;28;20043;-70
2022/12/03 00:21:00;;;;;;;13.27;11.32;;;;;;;;;;10079006;28;20056;-70
2022/12/03 00:25:54;;;;;;;13.52;12.00;;;;;;;;;;10072143;28;20089;-70
2022/12/03 00:30:48;;;;;;;12.15;10.65;;;;;;;;;;10087904;28;20053;-69
2022/12/03 00:35:42;;;;;;;15.48;11.63;;;;;;;;;;10086820;28;20063;-69
2022/12/03 00:40:36;;;;;;;12.63;11.32;;;;;;;;;;10079283;28;20491;-69
2022/12/03 00:45:30;;;;;;;12.57;11.27;;;;;;;;;;10076978;28;20047;-70
2022/12/03 00:50:24;;;;;;;12.80;11.35;;;;;;;;;;10077279;28;20120;-69
2022/12/03 00:55:17;;;;;;;12.55;11.35;;;;;;;;;;10069077;28;20049;-69
2022/12/03 01:00:14;;;;;;;11.63;10.05;;;;;;;;;;10072602;28;20452;-69
2022/12/03 01:05:09;;;;;;;14.65;10.80;;;;;;;;;;10072312;28;20480;-69
2022/12/03 01:10:06;;;;;;;11.57;9.93;;;;;;;;;;10069202;28;20366;-69
2022/12/03 01:15:00;;;;;;;12.13;10.90;;;;;;;;;;10066845;28;20053;-69
2022/12/03 01:19:54;;;;;;;12.23;9.40;;;;;;;;;;10067295;28;20045;-68
2022/12/03 01:24:48;;;;;;;13.40;10.05;;;;;;;;;;10075123;28;20558;-70
2022/12/03 01:29:43;;;;;;;14.27;11.60;;;;;;;;;;10074379;28;20046;-70
2022/12/03 01:34:38;;;;;;;15.23;11.82;;;;;;;;;;10071011;28;20068;-69
2022/12/03 01:39:34;;;;;;;15.32;10.98;;;;;;;;;;10072646;28;20042;-70
2022/12/03 01:44:33;;;;;;;19.75;13.05;;;;;;;;;;10072322;28;20415;-70
2022/12/03 01:49:41;;;;;;;30.60;17.70;;;;;;;;;;10081555;28;20037;-70
2022/12/03 01:54:39;;;;;;;18.70;15.00;;;;;;;;;;10078586;28;20053;-69
2022/12/03 01:59:36;;;;;;;15.95;11.32;;;;;;;;;;10082450;28;20061;-70
2022/12/03 02:04:32;;;;;;;12.77;10.95;;;;;;;;;;10074408;28;20527;-70
2022/12/03 02:09:27;;;;;;;11.85;9.07;;;;;;;;;;10086542;28;20072;-70
2022/12/03 02:14:24;;;;;;;13.40;10.15;;;;;;;;;;10075390;28;20136;-70
2022/12/03 02:19:28;;;;;;;11.23;9.95;;;;;;;;;;10077011;28;20049;-70
2022/12/03 02:25:13;;;;;;;11.60;10.50;;;;;;;;;;10084014;28;20061;-70
2022/12/03 02:30:12;;;;;;;11.18;10.07;;;;;;;;;;10052962;28;20099;-70
2022/12/03 02:35:17;;;;;;;;;;;;;;;;;;10069111;28;20049;-67
2022/12/03 02:40:14;;;;;;;10.65;9.57;;;;;;;;;;10065859;28;20012;-69
2022/12/03 02:45:17;;;;;;;13.10;10.57;;;;;;;;;;10062740;28;20455;-70
2022/12/03 02:50:11;;;;;;;13.20;10.57;;;;;;;;;;10070820;28;20049;-69
2022/12/03 02:55:05;;;;;;;14.55;11.32;;;;;;;;;;10071051;28;20136;-70
2022/12/03 02:59:59;;;;;;;12.63;10.52;;;;;;;;;;10078315;28;20463;-70
2022/12/03 03:04:54;;;;;;;11.25;10.15;;;;;;;;;;10071971;28;20496;-71
2022/12/03 03:09:48;;;;;;;10.68;9.57;;;;;;;;;;10069627;28;20045;-71
2022/12/03 03:14:42;;;;;;;10.48;9.38;;;;;;;;;;10070696;28;20045;-71
2022/12/03 03:19:37;;;;;;;13.48;11.27;;;;;;;;;;10071715;28;20049;-71
2022/12/03 03:24:30;;;;;;;11.00;9.63;;;;;;;;;;10070587;28;20077;-70
2022/12/03 03:29:23;;;;;;;11.65;10.45;;;;;;;;;;10068866;28;20076;-71
2022/12/03 03:34:17;;;;;;;11.70;10.43;;;;;;;;;;10069654;28;20049;-70
2022/12/03 03:39:10;;;;;;;12.02;10.82;;;;;;;;;;10070237;28;20049;-71
2022/12/03 03:44:05;;;;;;;10.82;9.70;;;;;;;;;;10069110;28;20045;-70
2022/12/03 03:48:59;;;;;;;11.75;10.55;;;;;;;;;;10069895;28;20128;-70
2022/12/03 03:53:54;;;;;;;10.88;9.77;;;;;;;;;;10070440;28;20053;-70
2022/12/03 03:58:48;;;;;;;13.77;10.40;;;;;;;;;;10069400;28;20136;-70
2022/12/03 04:03:42;;;;;;;11.40;10.20;;;;;;;;;;10077357;28;20111;-70
2022/12/03 04:08:36;;;;;;;11.80;10.60;;;;;;;;;;10068645;28;20080;-70
2022/12/03 04:13:30;;;;;;;11.98;10.77;;;;;;;;;;10068747;28;20557;-70
2022/12/03 04:18:41;;;;;;;11.70;9.82;;;;;;;;;;10069623;28;20132;-69
2022/12/03 04:23:35;;;;;;;12.70;10.32;;;;;;;;;;10068741;28;20089;-70
2022/12/03 04:28:47;;;;;;;12.25;11.00;;;;;;;;;;10067735;28;20053;-70
2022/12/03 04:39:13;;;;;;;12.88;10.82;;;;;;;;;;10023827;28;20042;-69
2022/12/03 04:49:18;;;;;;;13.50;12.07;;;;;;;;;;10068050;28;20046;-70
2022/12/03 04:54:11;;;;;;;12.68;11.07;;;;;;;;;;10067979;28;20479;-71
2022/12/03 04:59:05;;;;;;;13.10;11.57;;;;;;;;;;10067613;28;20052;-71
2022/12/03 05:04:05;;;;;;;13.98;12.02;;;;;;;;;;10067153;28;20572;-72
2022/12/03 05:08:59;;;;;;;12.48;11.20;;;;;;;;;;10066653;28;20049;-71
2022/12/03 05:13:53;;;;;;;14.00;11.45;;;;;;;;;;10066532;28;20485;-71
2022/12/03 05:18:47;;;;;;;13.68;12.27;;;;;;;;;;10078630;28;20140;-70
2022/12/03 05:23:41;;;;;;;12.82;11.55;;;;;;;;;;10076068;28;20474;-70
2022/12/03 05:28:34;;;;;;;15.68;13.15;;;;;;;;;;10074008;28;20053;-71
2022/12/03 05:33:28;;;;;;;14.48;12.70;;;;;;;;;;10084378;28;20049;-71
2022/12/03 05:38:22;;;;;;;13.25;11.85;;;;;;;;;;10069883;28;20099;-71
2022/12/03 05:43:16;;;;;;;14.90;13.38;;;;;;;;;;10081698;28;20132;-71
2022/12/03 05:48:11;;;;;;;14.93;13.00;;;;;;;;;;10072384;28;20501;-70
2022/12/03 05:53:04;;;;;;;15.68;12.63;;;;;;;;;;10076914;28;20053;-71
2022/12/03 05:57:57;;;;;;;16.25;13.02;;;;;;;;;;10068075;28;20140;-73
2022/12/03 06:02:51;;;;;;;13.55;12.15;;;;;;;;;;10080125;28;20052;-72
2022/12/03 06:07:46;;;;;;;13.98;12.65;;;;;;;;;;10077187;28;20054;-71
2022/12/03 06:12:40;;;;;;;15.07;13.35;;;;;;;;;;10072552;28;20523;-71
2022/12/03 06:17:34;;;;;;;15.02;12.77;;;;;;;;;;10083866;28;20050;-70
2022/12/03 06:22:28;;;;;;;13.98;12.23;;;;;;;;;;10086145;28;20172;-70
2022/12/03 06:27:22;;;;;;;17.50;13.50;;;;;;;;;;10089704;28;20488;-70
2022/12/03 06:32:16;;;;;;;14.85;13.25;;;;;;;;;;10085723;28;20053;-71
2022/12/03 06:37:10;;;;;;;15.02;13.45;;;;;;;;;;10091464;28;20090;-73
2022/12/03 06:42:04;;;;;;;15.95;13.20;;;;;;;;;;10087423;28;20112;-70
2022/12/03 06:46:58;;;;;;;21.92;15.05;;;;;;;;;;10080478;28;20103;-71
2022/12/03 06:51:52;;;;;;;16.95;15.23;;;;;;;;;;10085670;28;20488;-74
2022/12/03 06:56:46;;;;;;;17.10;15.30;;;;;;;;;;10090679;28;20573;-73
2022/12/03 07:01:39;;;;;;;18.30;16.38;;;;;;;;;;10087778;28;20092;-72
2022/12/03 07:06:32;;;;;;;16.00;14.32;;;;;;;;;;10078845;28;20053;-73
2022/12/03 07:11:32;;;;;;;14.38;12.88;;;;;;;;;;10058175;28;20058;-73
2022/12/03 07:16:25;;;;;;;16.33;14.57;;;;;;;;;;10071925;28;20136;-73
2022/12/03 07:21:19;;;;;;;15.60;12.68;;;;;;;;;;10071506;28;20075;-73
2022/12/03 07:26:13;;;;;;;14.48;11.90;;;;;;;;;;10070162;28;20053;-72
2022/12/03 07:31:06;;;;;;;14.93;13.32;;;;;;;;;;10070707;28;20054;-71
2022/12/03 07:36:00;;;;;;;16.33;14.60;;;;;;;;;;10070819;28;20045;-72
2022/12/03 07:40:54;;;;;;;18.70;14.05;;;;;;;;;;10070023;28;20156;-72
2022/12/03 07:45:49;;;;;;;15.95;12.95;;;;;;;;;;10069709;28;20052;-72
2022/12/03 07:50:42;;;;;;;18.08;14.30;;;;;;;;;;10070068;28;20421;-75
2022/12/03 07:55:36;;;;;;;17.63;15.57;;;;;;;;;;10069094;28;20419;-73
2022/12/03 08:00:30;;;;;;;20.27;15.20;;;;;;;;;;10068677;28;20049;-72
2022/12/03 08:05:25;;;;;;;16.17;14.00;;;;;;;;;;10067799;28;20045;-71
2022/12/03 08:10:19;;;;;;;16.33;14.45;;;;;;;;;;10069436;28;20115;-72
2022/12/03 08:15:19;;;;;;;19.88;16.77;;;;;;;;;;10065587;28;20049;-73
2022/12/03 08:20:21;;;;;;;22.08;18.10;;;;;;;;;;10067053;28;20424;-71
2022/12/03 08:25:25;;;;;;;19.58;17.48;;;;;;;;;;10062674;28;20088;-72
2022/12/03 08:30:19;;;;;;;28.00;22.30;;;;;;;;;;10068433;28;20099;-72
2022/12/03 08:35:32;;;;;;;19.02;16.10;;;;;;;;;;10066767;28;20096;-72
2022/12/03 08:40:38;;;;;;;17.02;14.73;;;;;;;;;;10060640;28;20104;-72
2022/12/03 08:45:38;;;;;;;30.83;23.42;;;;;;;;;;10059503;28;20393;-70
2022/12/03 08:51:12;;;;;;;21.40;17.00;;;;;;;;;;10064578;28;20393;-69
2022/12/03 08:56:38;;;;;;;67.45;41.33;;;;;;;;;;10063573;28;20058;-72
2022/12/03 09:01:42;;;;;;;28.10;25.23;;;;;;;;;;10065238;28;20061;-73
2022/12/03 09:06:36;;;;;;;19.15;16.80;;;;;;;;;;9982979;28;20065;-72
2022/12/03 09:11:30;;;;;;;19.92;16.45;;;;;;;;;;9989397;28;20050;-72
2022/12/03 09:16:24;;;;;;;22.15;19.63;;;;;;;;;;9988218;28;21682;-73
2022/12/03 09:21:19;;;;;;;20.70;17.85;;;;;;;;;;9988302;28;20109;-72
2022/12/03 09:26:12;;;;;;;17.30;15.05;;;;;;;;;;9986527;28;20047;-72
2022/12/03 09:31:07;;;;;;;19.35;15.20;;;;;;;;;;9988280;28;20057;-73
2022/12/03 09:36:01;;;;;;;19.25;16.27;;;;;;;;;;9988989;28;20178;-72
2022/12/03 09:40:55;;;;;;;18.63;15.60;;;;;;;;;;9985107;28;20116;-70
2022/12/03 09:45:48;;;;;;;18.63;16.63;;;;;;;;;;9987894;28;20493;-72
2022/12/03 09:50:43;;;;;;;19.50;15.95;;;;;;;;;;9987529;28;20400;-69
2022/12/03 09:55:36;;;;;;;15.40;13.45;;;;;;;;;;9984663;28;20052;-71
2022/12/03 10:00:30;;;;;;;15.98;14.27;;;;;;;;;;9992203;28;20719;-70
2022/12/03 10:05:24;;;;;;;17.35;14.50;;;;;;;;;;9991379;28;20413;-70
2022/12/03 10:10:20;;;;;;;17.45;13.57;;;;;;;;;;9991426;28;20492;-68
2022/12/03 10:15:17;;;;;;;15.32;13.25;;;;;;;;;;9979177;28;20046;-68
2022/12/03 10:20:12;;;;;;;14.25;12.75;;;;;;;;;;9984281;28;20042;-68
2022/12/03 10:25:31;;;;;;;13.93;11.88;;;;;;;;;;9988541;28;20050;-69
2022/12/03 10:30:25;;;;;;;16.45;13.82;;;;;;;;;;9984793;28;20495;-69
2022/12/03 10:35:37;;;;;;;14.90;12.52;;;;;;;;;;9988746;28;20458;-68
2022/12/03 10:40:39;;;;;;;12.95;10.82;;;;;;;;;;9969808;28;20054;-69
2022/12/03 10:45:35;;;;;;;23.95;19.23;;;;;;;;;;9969904;28;20058;-69
2022/12/03 10:50:29;;;;;;;15.63;13.10;;;;;;;;;;9967580;28;20620;-67
2022/12/03 10:55:23;;;;;;;115.22;65.82;;;;;;;;;;9996794;28;20049;-68
2022/12/03 11:00:19;;;;;;;17.58;13.27;;;;;;;;;;9986776;28;20054;-69
2022/12/03 11:05:15;;;;;;;23.33;20.85;;;;;;;;;;9983454;28;20097;-70
2022/12/03 11:10:14;;;;;;;12.60;11.25;;;;;;;;;;9991919;28;20050;-68
2022/12/03 11:15:16;;;;;;;13.37;11.47;;;;;;;;;;9983274;28;20046;-69
2022/12/03 11:20:24;;;;;;;12.52;9.70;;;;;;;;;;9978969;28;20294;-69
2022/12/03 11:25:23;;;;;;;13.50;12.10;;;;;;;;;;9980481;28;20085;-68
2022/12/03 11:30:55;;;;;;;13.25;10.82;;;;;;;;;;9983289;28;20085;-68
2022/12/03 11:36:03;;;;;;;10.90;9.45;;;;;;;;;;9988201;28;20097;-68
2022/12/03 11:41:14;;;;;;;12.63;10.43;;;;;;;;;;9988208;28;20046;-68
2022/12/03 11:46:08;;;;;;;13.13;11.27;;;;;;;;;;9978756;28;20133;-68
2022/12/03 11:51:03;;;;;;;15.82;11.48;;;;;;;;;;9982505;28;20055;-68
2022/12/03 11:56:07;;;;;;;12.05;10.30;;;;;;;;;;9990228;28;20064;-69
2022/12/03 12:01:03;;;;;;;19.23;13.25;;;;;;;;;;9985932;28;20560;-69
2022/12/03 12:06:01;;;;;;;15.48;12.20;;;;;;;;;;9980279;28;20524;-68
2022/12/03 12:10:55;;;;;;;15.93;11.90;;;;;;;;;;9984913;28;20078;-66
2022/12/03 12:15:49;;;;;;;16.15;11.73;;;;;;;;;;9984121;28;20061;-65
2022/12/03 12:20:43;;;;;;;17.38;12.52;;;;;;;;;;9978957;28;20081;-65
2022/12/03 12:25:39;;;;;;;19.33;13.05;;;;;;;;;;9982954;28;20117;-65
2022/12/03 12:30:32;;;;;;;16.38;12.45;;;;;;;;;;9980861;28;20105;-65
2022/12/03 12:35:28;;;;;;;21.75;12.77;;;;;;;;;;9981225;28;20461;-67
2022/12/03 12:40:25;;;;;;;16.25;12.07;;;;;;;;;;9986210;28;20062;-68
2022/12/03 12:45:43;;;;;;;17.23;13.15;;;;;;;;;;9979283;28;20058;-66
2022/12/03 12:50:38;;;;;;;12.40;10.40;;;;;;;;;;9965443;28;20058;-66
2022/12/03 12:55:35;;;;;;;15.60;13.03;;;;;;;;;;9962785;28;20058;-67
2022/12/03 13:00:29;;;;;;;16.55;11.90;;;;;;;;;;9975058;28;20097;-66
2022/12/03 13:05:25;;;;;;;14.48;11.77;;;;;;;;;;9978893;28;20435;-68
2022/12/03 13:10:38;;;;;;;17.02;12.20;;;;;;;;;;9977927;28;20054;-67
2022/12/03 13:15:51;;;;;;;14.23;10.98;;;;;;;;;;9963803;28;20141;-74
2022/12/03 13:20:44;;;;;;;14.30;11.70;;;;;;;;;;9972861;28;20440;-67
2022/12/03 13:25:42;;;;;;;13.52;11.60;;;;;;;;;;9980721;28;20054;-65
2022/12/03 13:30:59;;;;;;;17.20;12.65;;;;;;;;;;9967986;28;20508;-66
2022/12/03 13:35:53;;;;;;;15.48;11.70;;;;;;;;;;9978627;28;20069;-69
2022/12/03 13:40:52;;;;;;;22.52;13.95;;;;;;;;;;9960913;28;20050;-66
2022/12/03 13:45:49;;;;;;;14.95;12.10;;;;;;;;;;9980264;28;20100;-67
2022/12/03 13:50:44;;;;;;;19.38;14.73;;;;;;;;;;9970572;28;20401;-66
2022/12/03 13:55:43;;;;;;;20.63;15.20;;;;;;;;;;9960334;28;20054;-66
2022/12/03 14:00:43;;;;;;;19.30;13.43;;;;;;;;;;9973617;28;20050;-64
2022/12/03 14:05:38;;;;;;;18.77;13.57;;;;;;;;;;9975206;28;20301;-66
2022/12/03 14:10:31;;;;;;;21.10;14.32;;;;;;;;;;9978507;28;20066;-67
2022/12/03 14:15:25;;;;;;;23.33;15.40;;;;;;;;;;9966104;28;20057;-65
2022/12/03 14:20:19;;;;;;;19.80;13.68;;;;;;;;;;9970340;28;20046;-64
2022/12/03 14:25:12;;;;;;;20.45;13.77;;;;;;;;;;9971060;28;20126;-65
2022/12/03 14:30:07;;;;;;;17.15;13.52;;;;;;;;;;9982733;28;20125;-66
2022/12/03 14:35:01;;;;;;;18.48;13.40;;;;;;;;;;9980539;28;20104;-67
2022/12/03 14:40:02;;;;;;;19.05;13.82;;;;;;;;;;9974095;28;20073;-67
2022/12/03 14:44:55;;;;;;;48.70;33.50;;;;;;;;;;9988603;28;20051;-68
2022/12/03 14:49:49;;;;;;;21.92;15.45;;;;;;;;;;9989173;28;20062;-68
2022/12/03 14:54:44;;;;;;;16.92;13.60;;;;;;;;;;9989103;28;20186;-68
2022/12/03 14:59:39;;;;;;;18.10;14.63;;;;;;;;;;9990869;28;20058;-68
2022/12/03 15:04:32;;;;;;;16.65;12.63;;;;;;;;;;9991452;28;20501;-68
2022/12/03 15:09:26;;;;;;;15.10;11.43;;;;;;;;;;9989040;28;20133;-68
2022/12/03 15:14:20;;;;;;;15.02;10.88;;;;;;;;;;9989064;28;20077;-68
2022/12/03 15:19:14;;;;;;;13.98;11.23;;;;;;;;;;9988305;28;20054;-68
2022/12/03 15:24:09;;;;;;;14.43;11.82;;;;;;;;;;9992099;28;20124;-68
2022/12/03 15:29:02;;;;;;;18.75;13.88;;;;;;;;;;9991313;28;20096;-68
2022/12/03 15:33:56;;;;;;;14.85;11.23;;;;;;;;;;9988154;28;20461;-68
2022/12/03 15:38:50;;;;;;;19.38;12.32;;;;;;;;;;9991941;28;20051;-68
2022/12/03 15:43:44;;;;;;;13.35;11.52;;;;;;;;;;9991307;28;20068;-68
2022/12/03 15:48:38;;;;;;;11.90;10.30;;;;;;;;;;9991171;28;20498;-68
2022/12/03 15:53:32;;;;;;;13.20;11.15;;;;;;;;;;9991717;28;20448;-68
2022/12/03 15:58:26;;;;;;;12.85;10.80;;;;;;;;;;9991134;28;20062;-68
2022/12/03 16:03:20;;;;;;;12.80;11.35;;;;;;;;;;9989970;28;20042;-68
2022/12/03 16:08:14;;;;;;;12.98;11.07;;;;;;;;;;9990304;28;20051;-68
2022/12/03 16:13:08;;;;;;;14.23;11.38;;;;;;;;;;9989211;28;20057;-68
2022/12/03 16:18:03;;;;;;;12.73;10.68;;;;;;;;;;9988619;28;20043;-68
2022/12/03 16:22:56;;;;;;;14.27;11.00;;;;;;;;;;9987987;28;20461;-68
2022/12/03 16:27:50;;;;;;;13.35;10.98;;;;;;;;;;9989119;28;20485;-69
2022/12/03 16:32:43;;;;;;;15.35;11.65;;;;;;;;;;9988944;28;20085;-68
2022/12/03 16:37:37;;;;;;;16.45;11.45;;;;;;;;;;9989396;28;20418;-69
2022/12/03 16:42:31;;;;;;;13.77;10.50;;;;;;;;;;9988757;28;20120;-69
2022/12/03 16:47:25;;;;;;;14.82;12.30;;;;;;;;;;9983299;28;20083;-68
2022/12/03 16:52:25;;;;;;;18.65;12.48;;;;;;;;;;9987297;28;20054;-68
2022/12/03 16:57:18;;;;;;;16.88;11.27;;;;;;;;;;9989109;28;20073;-68
2022/12/03 17:02:12;;;;;;;12.60;10.75;;;;;;;;;;9988583;28;20054;-68
2022/12/03 17:07:08;;;;;;;12.38;10.57;;;;;;;;;;9988056;28;20065;-69
2022/12/03 17:12:02;;;;;;;13.45;11.32;;;;;;;;;;9988764;28;20057;-68
2022/12/03 17:16:55;;;;;;;13.10;11.32;;;;;;;;;;9988381;28;20050;-68
2022/12/03 17:21:49;;;;;;;13.57;11.50;;;;;;;;;;9988321;28;20497;-69
2022/12/03 17:26:44;;;;;;;14.20;11.30;;;;;;;;;;9988406;28;20452;-69
2022/12/03 17:31:53;;;;;;;23.85;17.88;;;;;;;;;;9981207;28;20054;-68
2022/12/03 17:36:47;;;;;;;18.60;13.85;;;;;;;;;;9987884;28;20054;-68
2022/12/03 17:41:41;;;;;;;16.33;13.25;;;;;;;;;;9987312;28;20105;-68
2022/12/03 17:46:35;;;;;;;14.77;11.88;;;;;;;;;;9987089;28;20046;-69
2022/12/03 17:51:28;;;;;;;17.08;12.57;;;;;;;;;;9987516;28;20062;-68
2022/12/03 17:56:22;;;;;;;21.77;12.98;;;;;;;;;;9987759;28;20078;-68
2022/12/03 18:01:15;;;;;;;17.13;12.27;;;;;;;;;;9987280;28;20521;-69
2022/12/03 18:06:10;;;;;;;18.67;16.67;;;;;;;;;;9986882;28;20133;-68
2022/12/03 18:11:05;;;;;;;18.10;12.85;;;;;;;;;;9987312;28;20386;-68
2022/12/03 18:15:59;;;;;;;15.85;11.85;;;;;;;;;;9988082;28;20081;-68
2022/12/03 18:20:53;;;;;;;15.20;12.55;;;;;;;;;;9993958;28;20054;-68
2022/12/03 18:25:47;;;;;;;14.65;12.13;;;;;;;;;;9995057;28;20064;-68
2022/12/03 18:30:41;;;;;;;19.08;14.15;;;;;;;;;;9989535;28;20085;-68
2022/12/03 18:35:43;;;;;;;22.65;16.17;;;;;;;;;;9994385;28;20141;-68
2022/12/03 18:40:36;;;;;;;125.63;89.75;;;;;;;;;;9993951;28;20104;-68
2022/12/03 18:45:30;;;;;;;128.63;77.70;;;;;;;;;;9993157;28;20100;-68
2022/12/03 18:50:24;;;;;;;154.38;89.55;;;;;;;;;;9993046;28;20457;-68
2022/12/03 18:55:19;;;;;;;280.33;143.93;;;;;;;;;;9993001;28;20046;-68
2022/12/03 19:00:14;;;;;;;203.65;130.68;;;;;;;;;;9992652;28;20050;-68
2022/12/03 19:05:10;;;;;;;81.03;57.38;;;;;;;;;;9993275;28;20051;-68
2022/12/03 19:10:09;;;;;;;32.38;26.23;;;;;;;;;;9993174;28;20046;-68
2022/12/03 19:15:04;;;;;;;28.80;22.92;;;;;;;;;;9992429;28;20052;-68
2022/12/03 19:19:57;;;;;;;21.95;14.80;;;;;;;;;;9991919;28;20536;-68
2022/12/03 19:24:52;;;;;;;20.23;15.88;;;;;;;;;;9992286;28;20054;-68
2022/12/03 19:29:48;;;;;;;18.08;15.23;;;;;;;;;;9990680;28;20038;-68
2022/12/03 19:34:42;;;;;;;17.42;14.10;;;;;;;;;;9991988;28;20050;-67
2022/12/03 19:39:36;;;;;;;17.55;13.90;;;;;;;;;;9991834;28;20125;-68
2022/12/03 19:44:29;;;;;;;22.13;12.52;;;;;;;;;;9991667;28;20569;-68
2022/12/03 19:49:23;;;;;;;16.50;11.95;;;;;;;;;;9988736;28;20054;-67
2022/12/03 19:54:17;;;;;;;18.73;12.75;;;;;;;;;;9991627;28;20124;-68
2022/12/03 19:59:11;;;;;;;21.02;13.55;;;;;;;;;;9991089;28;20382;-68
2022/12/03 20:04:07;;;;;;;21.40;14.80;;;;;;;;;;9985145;28;20113;-68
2022/12/03 20:09:16;;;;;;;21.73;13.52;;;;;;;;;;9990759;28;20097;-68
2022/12/03 20:14:50;;;;;;;20.50;13.68;;;;;;;;;;9989810;28;20054;-68
2022/12/03 20:19:44;;;;;;;31.80;16.23;;;;;;;;;;9987053;28;20413;-68
2022/12/03 20:24:38;;;;;;;25.33;17.63;;;;;;;;;;9989896;28;20051;-68
2022/12/03 20:29:32;;;;;;;37.05;21.13;;;;;;;;;;9989664;28;20046;-68
2022/12/03 20:34:26;;;;;;;51.20;26.13;;;;;;;;;;9990233;28;20097;-68
2022/12/03 20:39:20;;;;;;;38.15;21.25;;;;;;;;;;9988775;28;20077;-67
2022/12/03 20:44:14;;;;;;;60.38;32.42;;;;;;;;;;9987909;28;20053;-68
2022/12/03 20:49:07;;;;;;;38.22;27.13;;;;;;;;;;9988943;28;20054;-68
2022/12/03 20:54:02;;;;;;;26.33;17.90;;;;;;;;;;9989558;28;20457;-68
2022/12/03 20:58:55;;;;;;;30.85;17.88;;;;;;;;;;9988958;28;20074;-68
2022/12/03 21:03:49;;;;;;;27.45;15.80;;;;;;;;;;9987093;28;20046;-68
2022/12/03 21:08:44;;;;;;;29.05;17.77;;;;;;;;;;9988894;28;20133;-68
2022/12/03 21:13:40;;;;;;;26.95;17.23;;;;;;;;;;9983224;28;20077;-68
2022/12/03 21:18:34;;;;;;;24.50;16.42;;;;;;;;;;9987987;28;20062;-68
2022/12/03 21:23:29;;;;;;;29.33;18.05;;;;;;;;;;9988023;28;20078;-68
2022/12/03 21:28:23;;;;;;;31.40;18.20;;;;;;;;;;9987612;28;20054;-68
2022/12/03 21:33:17;;;;;;;32.58;18.08;;;;;;;;;;9987561;28;20042;-68
2022/12/03 21:38:11;;;;;;;31.85;20.00;;;;;;;;;;9987760;28;20055;-68
2022/12/03 21:43:06;;;;;;;31.55;18.50;;;;;;;;;;9987798;28;20081;-68
2022/12/03 21:48:00;;;;;;;32.53;21.27;;;;;;;;;;9987515;28;20057;-68
2022/12/03 21:52:54;;;;;;;39.65;18.10;;;;;;;;;;9987714;28;20104;-68
2022/12/03 21:57:48;;;;;;;32.65;18.63;;;;;;;;;;10005950;28;20495;-69
2022/12/03 22:02:42;;;;;;;41.25;18.95;;;;;;;;;;9995104;28;20472;-68
2022/12/03 22:07:37;;;;;;;36.25;18.73;;;;;;;;;;9994895;28;20453;-68
2022/12/03 22:12:31;;;;;;;35.42;21.70;;;;;;;;;;9995013;28;20093;-68
2022/12/03 22:17:25;;;;;;;48.47;19.63;;;;;;;;;;9989065;28;20058;-68
2022/12/03 22:22:19;;;;;;;31.45;15.82;;;;;;;;;;9987065;28;20634;-68
2022/12/03 22:27:14;;;;;;;31.00;16.63;;;;;;;;;;9995195;28;20397;-67
2022/12/03 22:32:08;;;;;;;59.38;33.30;;;;;;;;;;9994047;28;20042;-67
2022/12/03 22:37:02;;;;;;;90.65;38.67;;;;;;;;;;9994491;28;20125;-68
2022/12/03 22:41:57;;;;;;;114.35;58.05;;;;;;;;;;9993424;28;20121;-68
2022/12/03 22:46:51;;;;;;;51.03;20.05;;;;;;;;;;9993926;28;20054;-68
2022/12/03 22:51:46;;;;;;;36.67;16.77;;;;;;;;;;9993578;28;20077;-68
2022/12/03 22:56:39;;;;;;;28.58;16.27;;;;;;;;;;9993285;28;20310;-68
2022/12/03 23:01:34;;;;;;;35.70;15.07;;;;;;;;;;9993142;28;20054;-68
2022/12/03 23:06:28;;;;;;;36.80;15.23;;;;;;;;;;9992991;28;20113;-68
2022/12/03 23:11:22;;;;;;;37.10;16.17;;;;;;;;;;9992715;28;20073;-69
2022/12/03 23:16:47;;;;;;;37.38;14.25;;;;;;;;;;9993126;28;20054;-68
2022/12/03 23:21:40;;;;;;;59.05;15.52;;;;;;;;;;9987207;28;20058;-68
2022/12/03 23:26:36;;;;;;;41.28;15.40;;;;;;;;;;9984490;28;20069;-68
2022/12/03 23:31:31;;;;;;;42.88;16.60;;;;;;;;;;9992161;28;20058;-69
2022/12/03 23:36:26;;;;;;;55.92;17.52;;;;;;;;;;9991601;28;20050;-68
2022/12/03 23:41:22;;;;;;;50.97;16.80;;;;;;;;;;9991530;28;20066;-68
2022/12/03 23:46:18;;;;;;;72.30;17.42;;;;;;;;;;9987858;28;20418;-68
2022/12/03 23:51:16;;;;;;;39.03;16.90;;;;;;;;;;9991594;28;20082;-68
2022/12/03 23:56:12;;;;;;;27.35;13.27;;;;;;;;;;9989489;28;20038;-68
